Time;durP1;ratioP1;P1;durP2;ratioP2;P2;SDS_P1;SDS_P2;PMS_P1;PMS_P2;Temp;Humidity;BMP_temperature;BMP_pressure;BME280_temperature;BME280_humidity;BME280_pressure;Samples;Min_cycle;Max_cycle;Signal;HPM_P1;HPM_P2
2024/04/16 00:00:22;;;;;;;;;;;22.10;52.60;;;;;;5279378;26;85274;-40
2024/04/16 00:02:47;;;;;;;;;;;22.10;53.30;;;;;;5305231;26;85745;-39
2024/04/16 00:05:13;;;;;;;;;;;22.10;52.60;;;;;;5280989;26;85726;-39
2024/04/16 00:07:39;;;;;;;;;;;22.10;52.70;;;;;;5289644;26;85367;-39
2024/04/16 00:10:04;;;;;;;;;;;22.00;52.60;;;;;;5288130;26;85984;-40
2024/04/16 00:12:30;;;;;;;;;;;22.00;52.60;;;;;;5292627;26;85349;-39
2024/04/16 00:14:55;;;;;;;;;;;22.00;52.70;;;;;;5288470;26;84644;-39
2024/04/16 00:17:23;;;;;;;;;;;22.00;52.60;;;;;;5295085;26;86364;-39
2024/04/16 00:19:48;;;;;;;;;;;22.00;52.70;;;;;;5290647;26;85440;-39
2024/04/16 00:22:14;;;;;;;;;;;22.00;52.70;;;;;;5290766;26;86680;-39
2024/04/16 00:24:39;;;;;;;;;;;22.00;52.70;;;;;;5292208;26;86969;-39
2024/04/16 00:27:05;;;;;;;;;;;22.00;52.70;;;;;;5298904;26;85865;-39
2024/04/16 00:29:30;;;;;;;;;;;22.00;52.80;;;;;;5299571;26;86798;-39
2024/04/16 00:31:56;;;;;;;;;;;22.00;52.80;;;;;;5291291;26;85624;-39
2024/04/16 00:34:21;;;;;;;;;;;22.00;52.70;;;;;;5292236;26;85324;-39
2024/04/16 00:36:47;;;;;;;;;;;21.90;52.70;;;;;;5284198;26;85775;-39
2024/04/16 00:39:13;;;;;;;;;;;21.90;52.80;;;;;;5294149;26;84675;-39
2024/04/16 00:41:41;;;;;;;;;;;21.90;52.80;;;;;;5294379;26;85537;-39
2024/04/16 00:44:07;;;;;;;;;;;21.90;52.80;;;;;;5293406;26;86909;-39
2024/04/16 00:46:33;;;;;;;;;;;21.90;52.80;;;;;;5269727;26;86248;-38
2024/04/16 00:48:58;;;;;;;;;;;21.90;52.80;;;;;;5302514;26;86214;-39
2024/04/16 00:51:24;;;;;;;;;;;21.90;52.90;;;;;;5279618;26;87311;-39
2024/04/16 00:53:50;;;;;;;;;;;21.90;52.90;;;;;;5303942;26;86048;-39
2024/04/16 00:56:16;;;;;;;;;;;21.90;52.90;;;;;;5270652;26;86873;-41
2024/04/16 00:58:42;;;;;;;;;;;21.80;52.90;;;;;;5299881;26;85212;-38
2024/04/16 01:01:07;;;;;;;;;;;21.90;52.90;;;;;;5274591;26;86466;-40
2024/04/16 01:03:33;;;;;;;;;;;21.90;52.90;;;;;;5279491;26;86302;-39
2024/04/16 01:05:59;;;;;;;;;;;21.90;52.90;;;;;;5282399;26;85245;-40
2024/04/16 01:08:25;;;;;;;;;;;21.80;52.90;;;;;;5289587;26;85489;-39
2024/04/16 01:10:50;;;;;;;;;;;21.80;52.90;;;;;;5278907;26;88177;-39
2024/04/16 01:13:16;;;;;;;;;;;21.80;52.90;;;;;;5297131;26;85545;-39
2024/04/16 01:15:41;;;;;;;;;;;21.80;52.90;;;;;;5274049;26;85708;-39
2024/04/16 01:18:07;;;;;;;;;;;21.80;53.00;;;;;;5288731;26;85345;-39
2024/04/16 01:20:35;;;;;;;;;;;21.80;53.00;;;;;;5290272;26;85250;-39
2024/04/16 01:23:01;;;;;;;;;;;21.80;53.00;;;;;;5297331;26;86818;-40
2024/04/16 01:25:27;;;;;;;;;;;21.80;52.90;;;;;;5292580;26;85837;-39
2024/04/16 01:27:52;;;;;;;;;;;21.80;52.90;;;;;;5285256;26;86597;-39
2024/04/16 01:30:18;;;;;;;;;;;21.70;52.90;;;;;;5273863;26;86105;-39
2024/04/16 01:32:43;;;;;;;;;;;21.70;53.00;;;;;;5291667;26;85303;-39
2024/04/16 01:35:10;;;;;;;;;;;21.70;52.90;;;;;;5292426;26;86603;-39
2024/04/16 01:37:36;;;;;;;;;;;21.70;53.60;;;;;;5287664;26;86053;-39
2024/04/16 01:40:01;;;;;;;;;;;21.70;53.00;;;;;;5294760;26;87582;-39
2024/04/16 01:42:27;;;;;;;;;;;21.70;53.00;;;;;;5283280;26;85722;-39
2024/04/16 01:44:55;;;;;;;;;;;21.60;53.00;;;;;;5299345;26;85371;-39
2024/04/16 01:47:21;;;;;;;;;;;21.70;53.10;;;;;;5288396;26;86152;-39
2024/04/16 01:49:47;;;;;;;;;;;21.60;53.00;;;;;;5292433;26;86068;-39
2024/04/16 01:52:12;;;;;;;;;;;21.60;53.00;;;;;;5286183;26;84548;-39
2024/04/16 01:54:38;;;;;;;;;;;21.60;53.10;;;;;;5302950;26;86085;-40
2024/04/16 01:57:05;;;;;;;;;;;21.60;53.10;;;;;;5284067;26;85679;-39
2024/04/16 01:59:31;;;;;;;;;;;21.60;53.10;;;;;;5296339;26;86543;-39
2024/04/16 02:01:56;;;;;;;;;;;21.60;53.10;;;;;;5278916;26;85684;-39
2024/04/16 02:04:22;;;;;;;;;;;21.60;53.10;;;;;;5290007;26;85311;-39
2024/04/16 02:06:47;;;;;;;;;;;21.60;53.10;;;;;;5288269;26;86966;-39
2024/04/16 02:09:13;;;;;;;;;;;21.50;53.10;;;;;;5296509;26;86076;-39
2024/04/16 02:11:39;;;;;;;;;;;21.60;53.10;;;;;;5282776;26;85354;-39
2024/04/16 02:14:04;;;;;;;;;;;21.50;53.10;;;;;;5287316;26;85248;-39
2024/04/16 02:16:30;;;;;;;;;;;21.50;53.10;;;;;;5287027;26;87159;-39
2024/04/16 02:18:55;;;;;;;;;;;21.50;53.10;;;;;;5281474;26;86017;-39
2024/04/16 02:21:21;;;;;;;;;;;21.50;53.20;;;;;;5289977;26;86339;-39
2024/04/16 02:23:48;;;;;;;;;;;21.50;53.20;;;;;;5273370;26;86188;-39
2024/04/16 02:26:13;;;;;;;;;;;21.50;53.20;;;;;;5284411;26;87806;-39
2024/04/16 02:28:39;;;;;;;;;;;21.50;53.20;;;;;;5278585;26;85804;-39
2024/04/16 02:31:04;;;;;;;;;;;21.50;53.20;;;;;;5282882;26;85721;-39
2024/04/16 02:33:30;;;;;;;;;;;21.50;53.20;;;;;;5283686;26;85890;-39
2024/04/16 02:36:02;;;;;;;;;;;21.50;53.20;;;;;;5291246;26;85777;-39
2024/04/16 02:38:28;;;;;;;;;;;21.40;53.10;;;;;;5278889;26;85522;-39
2024/04/16 02:40:54;;;;;;;;;;;21.40;53.10;;;;;;5294939;26;86412;-39
2024/04/16 02:43:19;;;;;;;;;;;21.40;53.30;;;;;;5268478;26;85332;-39
2024/04/16 02:45:45;;;;;;;;;;;21.40;53.20;;;;;;5285773;26;85364;-39
2024/04/16 02:48:11;;;;;;;;;;;21.40;53.20;;;;;;5286892;26;88272;-38
2024/04/16 02:50:37;;;;;;;;;;;21.40;53.20;;;;;;5301876;26;85669;-39
2024/04/16 02:53:03;;;;;;;;;;;21.40;53.20;;;;;;5270809;26;86861;-39
2024/04/16 02:55:29;;;;;;;;;;;21.30;53.20;;;;;;5281405;26;86955;-39
2024/04/16 02:57:54;;;;;;;;;;;21.30;53.20;;;;;;5277163;26;85264;-39
2024/04/16 03:00:20;;;;;;;;;;;21.30;53.20;;;;;;5306262;26;86586;-39
2024/04/16 03:02:46;;;;;;;;;;;21.30;53.20;;;;;;5289422;26;85331;-39
2024/04/16 03:05:11;;;;;;;;;;;21.30;53.30;;;;;;5291530;26;85838;-39
2024/04/16 03:07:37;;;;;;;;;;;21.30;53.30;;;;;;5277100;26;85729;-38
2024/04/16 03:10:02;;;;;;;;;;;21.30;53.30;;;;;;5270162;26;85489;-39
2024/04/16 03:12:28;;;;;;;;;;;21.20;53.30;;;;;;5244569;26;86117;-39
2024/04/16 03:14:53;;;;;;;;;;;21.20;53.30;;;;;;5258134;26;85943;-39
2024/04/16 03:17:19;;;;;;;;;;;21.30;53.40;;;;;;5245400;26;85781;-39
2024/04/16 03:19:45;;;;;;;;;;;21.20;53.30;;;;;;5261640;26;85558;-39
2024/04/16 03:22:10;;;;;;;;;;;21.20;53.30;;;;;;5259263;26;86118;-39
2024/04/16 03:24:36;;;;;;;;;;;21.20;53.30;;;;;;5242380;26;86462;-39
2024/04/16 03:27:02;;;;;;;;;;;21.20;53.40;;;;;;5253069;26;86965;-39
2024/04/16 03:29:27;;;;;;;;;;;21.10;53.30;;;;;;5250151;26;85444;-39
2024/04/16 03:31:53;;;;;;;;;;;21.20;53.40;;;;;;5261864;26;85312;-39
2024/04/16 03:34:18;;;;;;;;;;;21.20;53.40;;;;;;5239456;26;87170;-39
2024/04/16 03:36:44;;;;;;;;;;;21.20;53.30;;;;;;5265191;26;86156;-39
2024/04/16 03:39:09;;;;;;;;;;;21.10;53.40;;;;;;5242131;26;87570;-39
2024/04/16 03:41:35;;;;;;;;;;;21.10;53.30;;;;;;5259265;26;87087;-39
2024/04/16 03:44:00;;;;;;;;;;;21.10;53.40;;;;;;5240730;26;85805;-39
2024/04/16 03:46:26;;;;;;;;;;;21.10;53.40;;;;;;5257286;26;85729;-39
2024/04/16 03:48:52;;;;;;;;;;;21.10;53.40;;;;;;5251548;26;85774;-39
2024/04/16 03:51:18;;;;;;;;;;;21.10;53.40;;;;;;5261641;26;85636;-39
2024/04/16 03:53:43;;;;;;;;;;;21.10;53.50;;;;;;5238929;26;85026;-39
2024/04/16 03:56:09;;;;;;;;;;;21.10;54.00;;;;;;5267642;26;85331;-39
2024/04/16 03:58:43;;;;;;;;;;;21.00;53.50;;;;;;5238500;26;85459;-39
2024/04/16 04:01:09;;;;;;;;;;;21.00;53.40;;;;;;5259227;26;87092;-40
2024/04/16 04:03:34;;;;;;;;;;;21.00;53.50;;;;;;5248894;26;85405;-39
2024/04/16 04:06:00;;;;;;;;;;;21.00;53.50;;;;;;5262382;26;86912;-39
2024/04/16 04:08:26;;;;;;;;;;;21.00;53.50;;;;;;5245951;26;85330;-39
2024/04/16 04:10:52;;;;;;;;;;;20.90;53.50;;;;;;5260865;26;86843;-39
2024/04/16 04:13:18;;;;;;;;;;;20.90;53.50;;;;;;5259268;26;85679;-39
2024/04/16 04:15:44;;;;;;;;;;;20.90;53.50;;;;;;5255389;26;85768;-39
2024/04/16 04:18:09;;;;;;;;;;;20.90;53.50;;;;;;5250279;26;86513;-39
2024/04/16 04:20:37;;;;;;;;;;;20.90;53.50;;;;;;5267819;26;87301;-39
2024/04/16 04:23:03;;;;;;;;;;;20.90;53.50;;;;;;5253456;26;85832;-39
2024/04/16 04:25:28;;;;;;;;;;;20.90;53.50;;;;;;5241940;26;86111;-39
2024/04/16 04:27:54;;;;;;;;;;;20.90;53.50;;;;;;5256626;26;85601;-39
2024/04/16 04:30:19;;;;;;;;;;;20.90;53.50;;;;;;5244301;26;85559;-39
2024/04/16 04:32:51;;;;;;;;;;;20.90;53.50;;;;;;5256104;26;85840;-39
2024/04/16 04:35:17;;;;;;;;;;;20.80;53.40;;;;;;5248289;26;85448;-39
2024/04/16 04:37:43;;;;;;;;;;;20.80;53.50;;;;;;5261418;26;85560;-39
2024/04/16 04:40:09;;;;;;;;;;;20.80;53.50;;;;;;5242383;26;85694;-38
2024/04/16 04:42:34;;;;;;;;;;;20.80;53.50;;;;;;5269615;26;84576;-39
2024/04/16 04:45:00;;;;;;;;;;;20.80;53.60;;;;;;5234333;26;86303;-39
2024/04/16 04:47:25;;;;;;;;;;;20.80;53.60;;;;;;5258735;26;86498;-39
2024/04/16 04:49:51;;;;;;;;;;;20.80;53.50;;;;;;5244727;26;86125;-39
2024/04/16 04:52:17;;;;;;;;;;;20.80;53.60;;;;;;5267093;26;85904;-39
2024/04/16 04:54:42;;;;;;;;;;;20.70;53.50;;;;;;5242208;26;86356;-39
2024/04/16 04:57:08;;;;;;;;;;;20.70;53.50;;;;;;5260144;26;85750;-39
2024/04/16 04:59:34;;;;;;;;;;;20.70;53.50;;;;;;5250433;26;86947;-39
2024/04/16 05:01:59;;;;;;;;;;;20.70;53.50;;;;;;5253106;26;85772;-39
2024/04/16 05:04:25;;;;;;;;;;;20.70;53.60;;;;;;5251018;26;85597;-39
2024/04/16 05:06:51;;;;;;;;;;;20.70;53.60;;;;;;5254243;26;86390;-39
2024/04/16 05:09:16;;;;;;;;;;;20.70;53.60;;;;;;5250516;26;85368;-39
2024/04/16 05:11:42;;;;;;;;;;;20.70;53.60;;;;;;5256341;26;86757;-39
2024/04/16 05:14:09;;;;;;;;;;;20.70;53.60;;;;;;5243383;26;86608;-39
2024/04/16 05:16:35;;;;;;;;;;;20.70;53.70;;;;;;5263410;26;86657;-39
2024/04/16 05:19:03;;;;;;;;;;;20.70;53.70;;;;;;5243751;26;87136;-39
2024/04/16 05:21:28;;;;;;;;;;;20.70;53.60;;;;;;5251084;26;85610;-38
2024/04/16 05:23:54;;;;;;;;;;;20.70;53.70;;;;;;5247795;26;86585;-39
2024/04/16 05:26:21;;;;;;;;;;;20.70;53.80;;;;;;5248572;26;87126;-39
2024/04/16 05:28:47;;;;;;;;;;;20.60;53.60;;;;;;5259249;26;85265;-38
2024/04/16 05:31:13;;;;;;;;;;;20.60;53.70;;;;;;5251341;26;84978;-39
2024/04/16 05:33:38;;;;;;;;;;;20.60;53.70;;;;;;5257647;26;85310;-38
2024/04/16 05:36:04;;;;;;;;;;;20.60;53.70;;;;;;5255620;26;85535;-39
2024/04/16 05:38:30;;;;;;;;;;;20.60;53.70;;;;;;5257165;26;88059;-39
2024/04/16 05:40:55;;;;;;;;;;;20.60;53.70;;;;;;5240187;26;87545;-39
2024/04/16 05:43:21;;;;;;;;;;;20.60;53.70;;;;;;5250474;26;85471;-38
2024/04/16 05:45:46;;;;;;;;;;;20.60;53.80;;;;;;5242958;26;86265;-39
2024/04/16 05:48:12;;;;;;;;;;;20.60;53.80;;;;;;5262910;26;86296;-39
2024/04/16 05:50:37;;;;;;;;;;;20.60;53.80;;;;;;5250911;26;86839;-38
2024/04/16 05:53:03;;;;;;;;;;;20.60;53.80;;;;;;5268579;26;85329;-39
2024/04/16 05:55:29;;;;;;;;;;;20.60;53.90;;;;;;5251154;26;85251;-39
2024/04/16 05:57:54;;;;;;;;;;;20.60;53.90;;;;;;5262080;26;88855;-39
2024/04/16 06:00:21;;;;;;;;;;;20.60;53.80;;;;;;5249419;26;85277;-39
2024/04/16 06:02:47;;;;;;;;;;;20.60;53.80;;;;;;5253171;26;86702;-39
2024/04/16 06:05:13;;;;;;;;;;;20.60;53.90;;;;;;5242120;26;85912;-39
2024/04/16 06:07:39;;;;;;;;;;;20.60;53.90;;;;;;5258188;26;85939;-39
2024/04/16 06:10:05;;;;;;;;;;;20.60;53.90;;;;;;5250757;26;85479;-39
2024/04/16 06:12:31;;;;;;;;;;;20.50;53.90;;;;;;5255755;26;87089;-39
2024/04/16 06:14:58;;;;;;;;;;;20.50;53.90;;;;;;5250347;26;86873;-39
2024/04/16 06:17:23;;;;;;;;;;;20.50;53.90;;;;;;5253505;26;87037;-39
2024/04/16 06:19:49;;;;;;;;;;;20.50;53.90;;;;;;5248689;26;85287;-39
2024/04/16 06:22:14;;;;;;;;;;;20.50;53.90;;;;;;5253074;26;86570;-39
2024/04/16 06:24:41;;;;;;;;;;;20.50;54.00;;;;;;5257850;26;87135;-39
2024/04/16 06:27:06;;;;;;;;;;;20.50;54.00;;;;;;5249806;26;86313;-39
2024/04/16 06:29:32;;;;;;;;;;;20.50;54.00;;;;;;5252676;26;85245;-40
2024/04/16 06:31:57;;;;;;;;;;;20.50;54.00;;;;;;5256730;26;86091;-39
2024/04/16 06:34:23;;;;;;;;;;;20.50;54.00;;;;;;5263180;26;85558;-41
2024/04/16 06:36:48;;;;;;;;;;;20.50;54.10;;;;;;5245969;26;86822;-39
2024/04/16 06:39:14;;;;;;;;;;;20.50;54.00;;;;;;5261035;26;85529;-39
2024/04/16 06:41:40;;;;;;;;;;;20.50;54.00;;;;;;5248228;26;86716;-39
2024/04/16 06:44:05;;;;;;;;;;;20.50;54.10;;;;;;5272766;26;85254;-39
2024/04/16 06:46:31;;;;;;;;;;;20.50;54.10;;;;;;5235314;26;85466;-39
2024/04/16 06:48:56;;;;;;;;;;;20.50;54.10;;;;;;5262251;26;85270;-39
2024/04/16 06:51:22;;;;;;;;;;;20.50;54.10;;;;;;5253561;26;87005;-39
2024/04/16 06:53:49;;;;;;;;;;;20.50;54.20;;;;;;5268656;26;85238;-39
2024/04/16 06:56:15;;;;;;;;;;;20.40;54.10;;;;;;5253361;26;87298;-39
2024/04/16 06:58:40;;;;;;;;;;;20.40;54.10;;;;;;5264305;26;85629;-39
2024/04/16 07:01:06;;;;;;;;;;;20.40;54.20;;;;;;5237096;26;85345;-39
2024/04/16 07:03:31;;;;;;;;;;;20.40;54.20;;;;;;5265353;26;87640;-39
2024/04/16 07:05:57;;;;;;;;;;;20.40;54.20;;;;;;5251523;26;85969;-39
2024/04/16 07:08:22;;;;;;;;;;;20.40;54.20;;;;;;5263325;26;86795;-39
2024/04/16 07:10:52;;;;;;;;;;;20.40;54.20;;;;;;5251821;26;85751;-39
2024/04/16 07:13:17;;;;;;;;;;;20.40;54.20;;;;;;5256527;26;85463;-39
2024/04/16 07:15:43;;;;;;;;;;;20.40;54.20;;;;;;5248455;26;86918;-39
2024/04/16 07:18:08;;;;;;;;;;;20.40;54.20;;;;;;5259762;26;85924;-38
2024/04/16 07:20:34;;;;;;;;;;;20.40;54.30;;;;;;5261796;26;86441;-39
2024/04/16 07:23:00;;;;;;;;;;;20.40;54.30;;;;;;5258099;26;86058;-39
2024/04/16 07:25:25;;;;;;;;;;;20.40;54.30;;;;;;5261860;26;85331;-39
2024/04/16 07:27:51;;;;;;;;;;;20.40;54.20;;;;;;5245257;26;85647;-39
2024/04/16 07:30:18;;;;;;;;;;;20.40;54.20;;;;;;5255423;26;86185;-39
2024/04/16 07:32:44;;;;;;;;;;;20.40;54.20;;;;;;5248655;26;84721;-39
2024/04/16 07:35:10;;;;;;;;;;;20.40;54.20;;;;;;5261014;26;85243;-39
2024/04/16 07:37:35;;;;;;;;;;;20.40;54.30;;;;;;5239173;26;85862;-39
2024/04/16 07:40:01;;;;;;;;;;;20.40;54.20;;;;;;5259577;26;86473;-39
2024/04/16 07:42:26;;;;;;;;;;;20.40;54.20;;;;;;5248895;26;86862;-39
2024/04/16 07:44:52;;;;;;;;;;;20.40;54.30;;;;;;5264925;26;85773;-39
2024/04/16 07:47:17;;;;;;;;;;;20.40;54.20;;;;;;5243796;26;87073;-41
2024/04/16 07:49:43;;;;;;;;;;;20.40;54.20;;;;;;5261853;26;86803;-38
2024/04/16 07:52:10;;;;;;;;;;;20.40;54.20;;;;;;5239959;26;85243;-38
2024/04/16 07:54:36;;;;;;;;;;;20.40;54.20;;;;;;5267054;26;86624;-39
2024/04/16 07:57:01;;;;;;;;;;;20.40;54.20;;;;;;5262055;26;87779;-39
2024/04/16 07:59:27;;;;;;;;;;;20.40;54.20;;;;;;5255538;26;86165;-40
2024/04/16 08:01:52;;;;;;;;;;;20.40;54.20;;;;;;5258683;26;85798;-39
2024/04/16 08:04:18;;;;;;;;;;;20.40;54.20;;;;;;5256534;26;86237;-39
2024/04/16 08:06:43;;;;;;;;;;;20.40;54.20;;;;;;5246504;26;86321;-39
2024/04/16 08:09:10;;;;;;;;;;;20.40;54.20;;;;;;5253858;26;87050;-38
2024/04/16 08:11:35;;;;;;;;;;;20.40;54.20;;;;;;5249636;26;85380;-39
2024/04/16 08:14:01;;;;;;;;;;;20.40;54.20;;;;;;5253447;26;85340;-39
2024/04/16 08:16:26;;;;;;;;;;;20.40;54.20;;;;;;5251316;26;86877;-39
2024/04/16 08:18:52;;;;;;;;;;;20.40;54.20;;;;;;5258733;26;85396;-39
2024/04/16 08:21:17;;;;;;;;;;;20.40;54.20;;;;;;5254251;26;86696;-39
2024/04/16 08:23:43;;;;;;;;;;;20.40;54.20;;;;;;5252640;26;86040;-39
2024/04/16 08:26:08;;;;;;;;;;;20.40;54.30;;;;;;5258476;26;86612;-38
2024/04/16 08:28:34;;;;;;;;;;;20.40;54.20;;;;;;5249811;26;86637;-39
2024/04/16 08:31:01;;;;;;;;;;;20.40;54.30;;;;;;5264640;26;86478;-39
2024/04/16 08:33:27;;;;;;;;;;;20.40;54.20;;;;;;5243708;26;86381;-39
2024/04/16 08:35:53;;;;;;;;;;;20.40;54.20;;;;;;5265201;26;87052;-39
2024/04/16 08:38:19;;;;;;;;;;;20.40;54.30;;;;;;5246073;26;85244;-39
2024/04/16 08:40:47;;;;;;;;;;;20.40;54.30;;;;;;5263318;26;85352;-39
2024/04/16 08:43:13;;;;;;;;;;;20.40;54.40;;;;;;5250664;26;86044;-39
2024/04/16 08:45:41;;;;;;;;;;;20.40;54.30;;;;;;5256235;26;86467;-38
2024/04/16 08:48:07;;;;;;;;;;;20.40;54.40;;;;;;5239175;26;86667;-39
2024/04/16 08:50:33;;;;;;;;;;;20.40;54.40;;;;;;5272872;26;85362;-39
2024/04/16 08:52:59;;;;;;;;;;;20.40;54.30;;;;;;5241116;26;86387;-39
2024/04/16 08:55:26;;;;;;;;;;;20.40;54.40;;;;;;5266477;26;85826;-39
2024/04/16 08:57:52;;;;;;;;;;;20.50;54.50;;;;;;5237341;26;85835;-39
2024/04/16 09:00:18;;;;;;;;;;;20.40;54.40;;;;;;5254905;26;85785;-39
2024/04/16 09:02:44;;;;;;;;;;;20.40;54.40;;;;;;5245201;26;86998;-38
2024/04/16 09:05:10;;;;;;;;;;;20.40;54.40;;;;;;5272040;26;85333;-39
2024/04/16 09:07:37;;;;;;;;;;;20.40;54.40;;;;;;5252355;26;85561;-39
2024/04/16 09:10:18;;;;;;;;;;;20.40;54.40;;;;;;5252832;26;84552;-39
2024/04/16 09:12:43;;;;;;;;;;;20.40;54.40;;;;;;5243865;26;85932;-39
2024/04/16 09:15:11;;;;;;;;;;;20.40;54.50;;;;;;5255637;26;85820;-38
2024/04/16 09:17:44;;;;;;;;;;;20.40;54.50;;;;;;5256506;26;86254;-38
2024/04/16 09:20:12;;;;;;;;;;;20.40;54.50;;;;;;5240691;26;87671;-38
2024/04/16 09:22:38;;;;;;;;;;;20.40;54.50;;;;;;5256629;26;85744;-38
2024/04/16 09:25:05;;;;;;;;;;;20.40;54.50;;;;;;5247164;26;85409;-38
2024/04/16 09:27:31;;;;;;;;;;;20.40;54.50;;;;;;5266443;26;86465;-38
2024/04/16 09:30:06;;;;;;;;;;;20.40;54.50;;;;;;5248561;26;85306;-38
2024/04/16 09:32:32;;;;;;;;;;;20.40;54.50;;;;;;5261873;26;87322;-38
2024/04/16 09:34:57;;;;;;;;;;;20.40;54.50;;;;;;5245034;26;85386;-39
2024/04/16 09:37:23;;;;;;;;;;;20.40;54.50;;;;;;5263191;26;85300;-39
2024/04/16 09:39:52;;;;;;;;;;;20.40;54.50;;;;;;5236847;26;85328;-39
2024/04/16 09:42:18;;;;;;;;;;;20.40;54.60;;;;;;5260541;26;87351;-39
2024/04/16 09:44:45;;;;;;;;;;;20.40;54.50;;;;;;5250241;26;85971;-39
2024/04/16 09:47:12;;;;;;;;;;;20.40;54.50;;;;;;5262973;26;85295;-39
2024/04/16 09:49:38;;;;;;;;;;;20.50;54.60;;;;;;5246692;26;85563;-39
2024/04/16 09:52:04;;;;;;;;;;;20.40;54.50;;;;;;5256330;26;85819;-39
2024/04/16 09:54:30;;;;;;;;;;;20.40;54.60;;;;;;5248711;26;86272;-39
2024/04/16 09:56:57;;;;;;;;;;;20.50;54.60;;;;;;5251754;26;85411;-39
2024/04/16 09:59:23;;;;;;;;;;;20.40;54.60;;;;;;5251966;26;85332;-39
2024/04/16 10:01:49;;;;;;;;;;;20.50;54.60;;;;;;5245410;26;86447;-39
2024/04/16 10:04:16;;;;;;;;;;;20.50;54.60;;;;;;5253585;26;86665;-39
2024/04/16 10:06:42;;;;;;;;;;;20.50;54.70;;;;;;5249003;26;86692;-38
2024/04/16 10:09:07;;;;;;;;;;;20.50;54.60;;;;;;5255974;26;87026;-39
2024/04/16 10:11:33;;;;;;;;;;;20.50;54.60;;;;;;5244207;26;87302;-39
2024/04/16 10:14:00;;;;;;;;;;;20.50;54.70;;;;;;5252530;26;85748;-39
2024/04/16 10:16:26;;;;;;;;;;;20.50;54.60;;;;;;5249966;26;85724;-39
2024/04/16 10:18:52;;;;;;;;;;;20.50;54.60;;;;;;5249114;26;86629;-39
2024/04/16 10:21:25;;;;;;;;;;;20.50;54.70;;;;;;5251678;26;87227;-39
2024/04/16 10:24:00;;;;;;;;;;;20.60;54.70;;;;;;5255764;26;84831;-39
2024/04/16 10:26:26;;;;;;;;;;;20.50;54.70;;;;;;5242920;26;85286;-39
2024/04/16 10:28:59;;;;;;;;;;;20.60;54.80;;;;;;5262307;26;87123;-39
2024/04/16 10:31:37;;;;;;;;;;;20.60;54.80;;;;;;5260587;26;86402;-38
2024/04/16 10:34:03;;;;;;;;;;;20.60;54.80;;;;;;5265713;26;87703;-39
2024/04/16 10:36:29;;;;;;;;;;;20.60;54.80;;;;;;5261643;26;85211;-39
2024/04/16 10:38:57;;;;;;;;;;;20.60;54.70;;;;;;5254663;26;85600;-39
2024/04/16 10:41:26;;;;;;;;;;;20.60;54.70;;;;;;5247904;26;87188;-39
2024/04/16 10:43:53;;;;;;;;;;;20.60;54.80;;;;;;5251883;26;86883;-39
2024/04/16 10:46:20;;;;;;;;;;;20.60;54.70;;;;;;5257619;26;86704;-39
2024/04/16 10:48:46;;;;;;;;;;;20.60;54.80;;;;;;5258099;26;85259;-39
2024/04/16 10:51:13;;;;;;;;;;;20.60;54.70;;;;;;5245255;26;85328;-39
2024/04/16 10:53:38;;;;;;;;;;;20.60;54.70;;;;;;5235746;26;86651;-39
2024/04/16 10:56:04;;;;;;;;;;;20.60;54.70;;;;;;5260448;26;86503;-40
2024/04/16 10:58:33;;;;;;;;;;;20.60;54.70;;;;;;5253338;26;87597;-39
2024/04/16 11:00:59;;;;;;;;;;;20.60;54.70;;;;;;5251041;26;86266;-39
2024/04/16 11:03:25;;;;;;;;;;;20.60;54.70;;;;;;5233321;26;85328;-39
2024/04/16 11:05:51;;;;;;;;;;;20.60;54.60;;;;;;5256417;26;86628;-38
2024/04/16 11:08:16;;;;;;;;;;;20.60;54.70;;;;;;5249633;26;87120;-39
2024/04/16 11:10:43;;;;;;;;;;;20.60;54.70;;;;;;5260396;26;85344;-38
2024/04/16 11:13:09;;;;;;;;;;;20.60;54.70;;;;;;5242397;26;86784;-38
2024/04/16 11:15:35;;;;;;;;;;;20.60;54.70;;;;;;5256312;26;87075;-39
2024/04/16 11:18:01;;;;;;;;;;;20.60;54.70;;;;;;5244217;26;86479;-39
2024/04/16 11:20:27;;;;;;;;;;;20.60;54.60;;;;;;5250491;26;88212;-39
2024/04/16 11:22:52;;;;;;;;;;;20.60;54.50;;;;;;5246467;26;85155;-38
2024/04/16 11:25:18;;;;;;;;;;;20.60;54.60;;;;;;5251815;26;86888;-39
2024/04/16 11:27:44;;;;;;;;;;;20.70;54.60;;;;;;5245352;26;85836;-38
2024/04/16 11:30:11;;;;;;;;;;;20.60;54.50;;;;;;5263135;26;87430;-38
2024/04/16 11:32:37;;;;;;;;;;;20.60;54.60;;;;;;5248362;26;86215;-38
2024/04/16 11:35:02;;;;;;;;;;;20.60;54.60;;;;;;5242217;26;85952;-39
2024/04/16 11:37:28;;;;;;;;;;;20.60;54.50;;;;;;5259793;26;84527;-38
2024/04/16 11:39:54;;;;;;;;;;;20.70;54.60;;;;;;5243235;26;85838;-38
2024/04/16 11:42:20;;;;;;;;;;;20.70;54.50;;;;;;5252257;26;85323;-38
2024/04/16 11:44:46;;;;;;;;;;;20.70;54.40;;;;;;5247402;26;86632;-38
2024/04/16 11:47:11;;;;;;;;;;;20.70;54.40;;;;;;5250220;26;87011;-38
2024/04/16 11:49:37;;;;;;;;;;;20.70;54.40;;;;;;5240279;26;85976;-38
2024/04/16 11:52:06;;;;;;;;;;;20.70;54.50;;;;;;5258295;26;85976;-39
2024/04/16 11:54:36;;;;;;;;;;;20.70;54.40;;;;;;5247790;26;85592;-38
2024/04/16 11:57:03;;;;;;;;;;;20.70;54.50;;;;;;5272421;26;85468;-38
2024/04/16 11:59:28;;;;;;;;;;;20.70;54.50;;;;;;5246781;26;87115;-38
2024/04/16 12:01:54;;;;;;;;;;;20.70;54.40;;;;;;5265216;26;85010;-38
2024/04/16 12:04:20;;;;;;;;;;;20.80;54.50;;;;;;5246866;26;85202;-38
2024/04/16 12:06:45;;;;;;;;;;;20.80;54.30;;;;;;5264519;26;87252;-38
2024/04/16 12:09:11;;;;;;;;;;;20.80;54.40;;;;;;5241848;26;86684;-38
2024/04/16 12:11:36;;;;;;;;;;;20.80;54.40;;;;;;5257187;26;86276;-38
2024/04/16 12:14:02;;;;;;;;;;;20.80;54.40;;;;;;5248709;26;85885;-38
2024/04/16 12:16:30;;;;;;;;;;;20.90;54.30;;;;;;5255961;26;85411;-38
2024/04/16 12:18:56;;;;;;;;;;;20.90;54.30;;;;;;5249918;26;86565;-38
2024/04/16 12:21:22;;;;;;;;;;;20.90;54.40;;;;;;5239882;26;85550;-39
2024/04/16 12:23:50;;;;;;;;;;;20.90;54.30;;;;;;5242814;26;85291;-38
2024/04/16 12:26:15;;;;;;;;;;;20.90;54.30;;;;;;5251289;26;86836;-39
2024/04/16 12:28:44;;;;;;;;;;;20.90;54.30;;;;;;5248829;26;85333;-39
2024/04/16 12:31:09;;;;;;;;;;;20.90;54.40;;;;;;5260285;26;86628;-39
2024/04/16 12:33:35;;;;;;;;;;;21.00;54.40;;;;;;5246611;26;87987;-40
2024/04/16 12:36:01;;;;;;;;;;;20.90;54.30;;;;;;5246517;26;86675;-39
2024/04/16 12:38:27;;;;;;;;;;;21.00;54.40;;;;;;5251661;26;86701;-39
2024/04/16 12:40:52;;;;;;;;;;;20.90;54.30;;;;;;5247150;26;85755;-39
2024/04/16 12:43:19;;;;;;;;;;;21.00;54.40;;;;;;5247963;26;86765;-40
2024/04/16 12:45:45;;;;;;;;;;;20.90;54.40;;;;;;5247983;26;87084;-39
2024/04/16 12:48:17;;;;;;;;;;;21.00;54.40;;;;;;5262195;26;85212;-39
2024/04/16 12:50:43;;;;;;;;;;;21.00;54.50;;;;;;5235739;26;86466;-39
2024/04/16 12:53:09;;;;;;;;;;;20.90;54.40;;;;;;5267524;26;85697;-39
2024/04/16 12:55:34;;;;;;;;;;;20.90;54.30;;;;;;5242795;26;85385;-39
2024/04/16 12:58:00;;;;;;;;;;;21.00;54.50;;;;;;5255120;26;86757;-39
2024/04/16 13:00:25;;;;;;;;;;;20.90;54.30;;;;;;5235728;26;85801;-40
2024/04/16 13:02:51;;;;;;;;;;;20.90;54.40;;;;;;5261403;26;85904;-40
2024/04/16 13:05:19;;;;;;;;;;;21.00;54.50;;;;;;5243933;26;87069;-39
2024/04/16 13:07:48;;;;;;;;;;;20.90;54.40;;;;;;5248187;26;85271;-39
2024/04/16 13:10:14;;;;;;;;;;;20.90;54.40;;;;;;5243623;26;86554;-39
2024/04/16 13:12:42;;;;;;;;;;;21.00;55.10;;;;;;5262491;26;87255;-39
2024/04/16 13:15:08;;;;;;;;;;;20.90;54.40;;;;;;5248964;26;84633;-40
2024/04/16 13:17:33;;;;;;;;;;;21.00;54.50;;;;;;5252658;26;85828;-39
2024/04/16 13:19:59;;;;;;;;;;;21.00;54.50;;;;;;5240969;26;87127;-39
2024/04/16 13:22:25;;;;;;;;;;;20.90;54.40;;;;;;5244268;26;86255;-39
2024/04/16 13:24:51;;;;;;;;;;;20.90;54.50;;;;;;5255117;26;86713;-39
2024/04/16 13:27:16;;;;;;;;;;;21.00;54.50;;;;;;5256441;26;85299;-39
2024/04/16 13:29:42;;;;;;;;;;;20.90;54.40;;;;;;5246228;26;85297;-39
2024/04/16 13:32:08;;;;;;;;;;;20.90;54.50;;;;;;5243611;26;87097;-39
2024/04/16 13:34:33;;;;;;;;;;;21.00;54.50;;;;;;5256559;26;85233;-40
2024/04/16 13:37:01;;;;;;;;;;;20.90;54.40;;;;;;5239312;26;86488;-39
2024/04/16 13:39:27;;;;;;;;;;;21.00;54.50;;;;;;5254369;26;86401;-40
2024/04/16 13:41:53;;;;;;;;;;;21.00;54.50;;;;;;5250683;26;85219;-39
2024/04/16 13:44:19;;;;;;;;;;;21.00;54.50;;;;;;5261397;26;85697;-39
2024/04/16 13:46:45;;;;;;;;;;;20.90;54.50;;;;;;5247397;26;86518;-39
2024/04/16 13:49:11;;;;;;;;;;;21.00;54.50;;;;;;5253038;26;86235;-40
2024/04/16 13:51:36;;;;;;;;;;;21.00;54.50;;;;;;5248144;26;86309;-39
2024/04/16 13:54:02;;;;;;;;;;;21.00;54.40;;;;;;5260817;26;85415;-39
2024/04/16 13:56:27;;;;;;;;;;;21.00;54.50;;;;;;5239184;26;85495;-39
2024/04/16 13:58:53;;;;;;;;;;;21.00;54.50;;;;;;5261717;26;85629;-40
2024/04/16 14:01:19;;;;;;;;;;;20.90;54.40;;;;;;5236927;26;85247;-39
2024/04/16 14:03:45;;;;;;;;;;;21.00;54.50;;;;;;5259013;26;86506;-39
2024/04/16 14:06:10;;;;;;;;;;;21.00;54.50;;;;;;5250373;26;85835;-39
2024/04/16 14:08:36;;;;;;;;;;;20.90;54.40;;;;;;5265126;26;86378;-39